Time;durP1;ratioP1;P1;durP2;ratioP2;P2;SDS_P1;SDS_P2;PMS_P1;PMS_P2;Temp;Humidity;BMP_temperature;BMP_pressure;BME280_temperature;BME280_humidity;BME280_pressure;Samples;Min_cycle;Max_cycle;Signal;HPM_P1;HPM_P2
2022/01/28 00:01:53;;;;;;;7.87;7.20;;;5.70;99.90;;;;;;5032773;28;20286;-65
2022/01/28 00:04:19;;;;;;;9.47;6.90;;;5.70;99.90;;;;;;5047929;28;20198;-64
2022/01/28 00:06:45;;;;;;;15.10;7.53;;;5.70;99.90;;;;;;5052463;28;20213;-64
2022/01/28 00:09:10;;;;;;;8.50;7.77;;;5.70;99.90;;;;;;5038377;28;20198;-65
2022/01/28 00:11:37;;;;;;;16.90;8.00;;;5.70;99.90;;;;;;5032507;28;20179;-65
2022/01/28 00:14:28;;;;;;;6.63;6.30;;;5.70;99.90;;;;;;5033247;28;20195;-64
2022/01/28 00:37:02;;;;;;;15.10;6.50;;;5.80;99.90;;;;;;5052069;28;20304;-65
2022/01/28 00:39:04;;;;;;;8.20;7.50;;;5.70;99.90;;;;;;5038894;28;20192;-66
2022/01/28 00:41:30;;;;;;;9.10;7.30;;;5.60;99.90;;;;;;5039276;28;20193;-65
2022/01/28 00:43:55;;;;;;;7.83;7.23;;;5.60;99.90;;;;;;5051505;28;20406;-65
2022/01/28 00:46:21;;;;;;;8.23;7.30;;;5.60;99.90;;;;;;5045750;28;20608;-65
2022/01/28 00:48:47;;;;;;;8.70;7.40;;;5.60;99.90;;;;;;5031630;28;20186;-66
2022/01/28 00:51:12;;;;;;;12.60;7.43;;;5.50;99.90;;;;;;5034357;28;20174;-65
2022/01/28 00:53:38;;;;;;;8.10;7.47;;;5.50;99.90;;;;;;5051260;28;20540;-65
2022/01/28 00:56:03;;;;;;;8.77;7.97;;;5.50;99.90;;;;;;5049131;28;20195;-65
2022/01/28 00:58:29;;;;;;;8.73;7.73;;;5.50;99.90;;;;;;5030359;28;20211;-64
2022/01/28 01:00:55;;;;;;;13.03;8.53;;;5.40;99.90;;;;;;5031846;28;20175;-66
2022/01/28 01:03:20;;;;;;;9.33;8.43;;;5.40;99.90;;;;;;5051417;28;20265;-64
2022/01/28 01:05:46;;;;;;;11.40;8.23;;;5.30;99.90;;;;;;5051416;28;20167;-64
2022/01/28 01:08:12;;;;;;;7.30;7.00;;;5.20;99.90;;;;;;5049916;28;20193;-66
2022/01/28 01:10:38;;;;;;;10.03;7.27;;;5.20;99.90;;;;;;5051812;28;20257;-65
2022/01/28 01:13:04;;;;;;;7.37;6.80;;;5.10;99.90;;;;;;5033730;28;20207;-65
2022/01/28 01:15:35;;;;;;;7.97;7.47;;;5.00;99.90;;;;;;5031964;28;20180;-65
2022/01/28 01:25:30;;;;;;;8.07;7.17;;;4.80;99.90;;;;;;5031540;28;20171;-65
2022/01/28 01:27:58;;;;;;;7.67;7.13;;;4.80;99.90;;;;;;5045694;28;20700;-65
2022/01/28 01:30:27;;;;;;;8.50;7.63;;;4.80;99.90;;;;;;5051472;28;20174;-64
2022/01/28 01:32:53;;;;;;;8.07;7.30;;;4.80;99.90;;;;;;5036952;28;20234;-64
2022/01/28 01:35:19;;;;;;;10.00;7.73;;;4.70;99.90;;;;;;5041301;28;20210;-65
2022/01/28 01:37:44;;;;;;;8.80;7.20;;;4.60;99.90;;;;;;5041637;28;20207;-65
2022/01/28 01:40:11;;;;;;;7.47;6.87;;;4.60;99.90;;;;;;5030107;28;20176;-65
2022/01/28 01:45:40;;;;;;;9.00;8.20;;;4.60;99.90;;;;;;5020659;28;20175;-66
2022/01/28 01:53:28;;;;;;;7.33;6.93;;;4.50;99.90;;;;;;5020629;28;20302;-65
2022/01/28 01:55:55;;;;;;;12.23;7.33;;;4.40;99.90;;;;;;5031354;28;20175;-65
2022/01/28 01:58:30;;;;;;;7.87;6.93;;;4.40;99.90;;;;;;5043352;28;20628;-64
2022/01/28 02:00:57;;;;;;;8.00;7.20;;;4.40;99.90;;;;;;5054856;28;20178;-65
2022/01/28 02:03:22;;;;;;;7.70;7.13;;;4.40;99.90;;;;;;5040945;28;20280;-64
2022/01/28 02:05:48;;;;;;;13.87;7.30;;;4.40;99.90;;;;;;5033668;28;20266;-65
2022/01/28 02:08:13;;;;;;;7.23;6.63;;;4.40;99.90;;;;;;5046256;28;20201;-65
2022/01/28 02:10:39;;;;;;;7.73;7.00;;;4.30;99.90;;;;;;5054680;28;20543;-65
2022/01/28 02:13:05;;;;;;;11.37;7.30;;;4.30;99.90;;;;;;5044010;28;20219;-65
2022/01/28 02:15:30;;;;;;;7.90;7.20;;;4.30;99.90;;;;;;5033493;28;20274;-64
2022/01/28 02:17:59;;;;;;;7.83;7.20;;;4.30;99.90;;;;;;5042531;28;20208;-64
2022/01/28 02:20:33;;;;;;;7.37;6.87;;;4.30;99.90;;;;;;5054572;28;20536;-64
2022/01/28 02:22:59;;;;;;;10.60;6.93;;;4.40;99.90;;;;;;5037528;28;20238;-64
2022/01/28 02:25:30;;;;;;;6.93;6.63;;;4.40;99.90;;;;;;5034663;28;20214;-65
2022/01/28 02:28:00;;;;;;;7.77;7.27;;;4.40;99.90;;;;;;5048263;28;20191;-64
2022/01/28 02:30:26;;;;;;;7.80;7.10;;;4.40;99.90;;;;;;5054851;28;20175;-64
2022/01/28 02:32:57;;;;;;;8.13;7.10;;;4.40;99.90;;;;;;5039438;28;20578;-66
2022/01/28 02:35:23;;;;;;;6.50;6.20;;;4.40;99.90;;;;;;5033186;28;20596;-64
2022/01/28 02:37:48;;;;;;;22.33;8.33;;;4.50;99.90;;;;;;5047167;28;20246;-66
2022/01/28 02:40:14;;;;;;;7.13;6.77;;;4.60;99.90;;;;;;5054158;28;20171;-66
2022/01/28 02:42:59;;;;;;;8.13;7.43;;;4.50;99.90;;;;;;5041794;28;20661;-66
2022/01/28 02:45:28;;;;;;;8.27;7.47;;;4.50;99.90;;;;;;5014461;28;20184;-66
2022/01/28 02:47:59;;;;;;;15.47;8.13;;;4.50;99.90;;;;;;5040179;28;20183;-65
2022/01/28 02:50:27;;;;;;;7.80;7.23;;;4.40;99.90;;;;;;5054118;28;20178;-66
2022/01/28 02:53:03;;;;;;;7.63;7.00;;;4.40;99.90;;;;;;5041041;28;20321;-65
2022/01/28 02:55:34;;;;;;;13.47;7.97;;;4.40;99.90;;;;;;5034598;28;20637;-64
2022/01/28 02:58:21;;;;;;;8.37;7.57;;;4.30;99.90;;;;;;5053885;28;20206;-65
2022/01/28 03:00:48;;;;;;;8.17;7.37;;;4.30;99.90;;;;;;5050468;28;20175;-65
2022/01/28 03:03:18;;;;;;;16.10;8.57;;;4.30;99.90;;;;;;5033819;28;20199;-64
2022/01/28 03:05:47;;;;;;;7.30;6.93;;;4.40;99.90;;;;;;5035406;28;20834;-65
2022/01/28 03:08:13;;;;;;;7.90;7.17;;;4.40;99.90;;;;;;5052434;28;20179;-65
2022/01/28 03:16:05;;;;;;;8.33;7.63;;;4.60;99.90;;;;;;5035409;28;20270;-65
2022/01/28 03:18:41;;;;;;;7.03;6.70;;;4.60;99.90;;;;;;5053464;28;20297;-66
2022/01/28 03:21:19;;;;;;;10.63;7.27;;;4.70;99.90;;;;;;5051915;28;20178;-64
2022/01/28 03:23:44;;;;;;;9.80;8.30;;;4.80;99.90;;;;;;5053003;28;20273;-65
2022/01/28 03:26:10;;;;;;;7.70;7.13;;;4.80;99.90;;;;;;5042599;28;20291;-64
2022/01/28 03:28:35;;;;;;;8.13;7.33;;;4.80;99.90;;;;;;5033246;28;20672;-65
2022/01/28 03:31:01;;;;;;;7.17;6.60;;;4.90;99.90;;;;;;5042003;28;20214;-65
2022/01/28 03:33:27;;;;;;;15.03;7.30;;;4.90;99.90;;;;;;5052873;28;20199;-64
2022/01/28 03:35:52;;;;;;;7.73;7.03;;;4.80;99.90;;;;;;5044257;28;20183;-64
2022/01/28 03:38:18;;;;;;;9.90;7.10;;;4.80;99.90;;;;;;5033245;28;20213;-65
2022/01/28 03:40:44;;;;;;;12.83;7.57;;;4.80;99.90;;;;;;5038258;28;20257;-65
2022/01/28 03:43:09;;;;;;;17.30;8.30;;;4.70;99.90;;;;;;5052653;28;20225;-64
2022/01/28 03:45:35;;;;;;;8.10;6.63;;;4.70;99.90;;;;;;5049105;28;20402;-65
2022/01/28 03:48:01;;;;;;;6.63;6.23;;;4.70;99.90;;;;;;5032953;28;20172;-64
2022/01/28 03:50:27;;;;;;;8.57;6.87;;;4.70;99.90;;;;;;5034876;28;20255;-64
2022/01/28 03:52:52;;;;;;;7.27;6.77;;;4.70;99.90;;;;;;5050930;28;20667;-65
2022/01/28 03:55:18;;;;;;;7.77;7.03;;;4.70;99.90;;;;;;5052337;28;20190;-65
2022/01/28 03:57:44;;;;;;;7.30;6.80;;;4.70;99.90;;;;;;5032749;28;20207;-64
2022/01/28 04:00:10;;;;;;;7.60;7.10;;;4.60;99.90;;;;;;5032850;28;20815;-65
2022/01/28 04:02:38;;;;;;;7.60;7.07;;;4.60;99.90;;;;;;5033523;28;20208;-65
2022/01/28 04:05:45;;;;;;;8.50;7.70;;;4.60;99.90;;;;;;5032605;28;20168;-66
2022/01/28 04:13:23;;;;;;;8.80;7.27;;;4.60;99.90;;;;;;5075100;22;20296;-65
2022/01/28 04:16:04;;;;;;;7.50;6.77;;;4.60;99.90;;;;;;5052155;28;20575;-64
2022/01/28 04:18:29;;;;;;;8.00;6.90;;;4.50;99.90;;;;;;5052559;28;20255;-66
2022/01/28 04:20:55;;;;;;;7.83;6.90;;;4.50;99.90;;;;;;5050295;28;20652;-66
2022/01/28 04:23:20;;;;;;;7.47;6.60;;;4.50;99.90;;;;;;5032366;28;20660;-65
2022/01/28 04:25:46;;;;;;;7.67;7.10;;;4.50;99.90;;;;;;5032692;28;20186;-67
2022/01/28 04:28:12;;;;;;;7.23;6.80;;;4.40;99.90;;;;;;5033162;28;20176;-66
2022/01/28 04:30:37;;;;;;;10.47;7.57;;;4.40;99.90;;;;;;5032327;28;20180;-66
2022/01/28 04:33:03;;;;;;;8.17;7.47;;;4.40;99.90;;;;;;5048946;28;20675;-65
2022/01/28 04:35:29;;;;;;;7.93;6.63;;;4.40;99.90;;;;;;5052251;28;20202;-66
2022/01/28 04:40:27;;;;;;;8.77;7.87;;;4.40;99.90;;;;;;5032333;28;20167;-66
2022/01/28 04:46:14;;;;;;;9.13;8.43;;;4.30;99.90;;;;;;5051983;28;20162;-67
2022/01/28 04:48:33;;;;;;;7.50;6.77;;;4.30;99.90;;;;;;5048737;28;20221;-67
2022/01/28 04:51:15;;;;;;;7.50;7.10;;;4.20;99.90;;;;;;5051728;28;20177;-66
2022/01/28 05:01:45;;;;;;;7.97;7.23;;;4.00;99.90;;;;;;5051705;28;20175;-65
2022/01/28 05:07:19;;;;;;;9.40;6.87;;;4.00;99.90;;;;;;5051719;28;20159;-66
2022/01/28 05:26:24;;;;;;;11.77;7.80;;;3.90;99.90;;;;;;5020309;28;20191;-66
2022/01/28 05:28:50;;;;;;;8.70;7.23;;;3.90;99.90;;;;;;5031663;28;20179;-66
2022/01/28 05:31:17;;;;;;;9.60;7.63;;;3.80;99.90;;;;;;5032286;28;20230;-66
2022/01/28 05:33:43;;;;;;;8.73;7.43;;;3.70;99.90;;;;;;5042590;28;20194;-66
2022/01/28 05:36:08;;;;;;;7.57;7.17;;;3.70;99.90;;;;;;5055596;28;20185;-66
2022/01/28 05:38:34;;;;;;;8.63;7.40;;;3.70;99.90;;;;;;5049246;28;20257;-66
2022/01/28 05:40:59;;;;;;;8.47;7.47;;;3.70;99.90;;;;;;5035274;28;20206;-67
2022/01/28 05:43:25;;;;;;;8.37;7.63;;;3.70;99.90;;;;;;5038746;28;20195;-66
2022/01/28 05:45:50;;;;;;;9.60;7.17;;;3.70;99.90;;;;;;5055240;28;20182;-66
2022/01/28 05:48:17;;;;;;;8.30;7.50;;;3.80;99.90;;;;;;5053082;28;20167;-67
2022/01/28 05:50:42;;;;;;;15.57;8.70;;;3.80;99.90;;;;;;5051502;28;20199;-66
2022/01/28 05:53:08;;;;;;;10.33;6.50;;;3.90;99.90;;;;;;5054378;28;20279;-65
2022/01/28 05:55:35;;;;;;;9.70;7.10;;;3.90;99.90;;;;;;5035191;28;20303;-66
2022/01/28 05:58:00;;;;;;;8.27;7.77;;;4.00;99.90;;;;;;5035078;28;20564;-67
2022/01/28 06:00:26;;;;;;;10.53;7.73;;;4.00;99.90;;;;;;5053159;28;20185;-66
2022/01/28 06:02:52;;;;;;;7.13;6.57;;;3.90;99.90;;;;;;5054439;28;20187;-65
2022/01/28 06:05:18;;;;;;;11.20;7.87;;;3.90;99.90;;;;;;5037934;28;20176;-65
2022/01/28 06:07:44;;;;;;;14.30;6.90;;;3.90;99.90;;;;;;5034875;28;20640;-66
2022/01/28 06:10:11;;;;;;;9.70;7.53;;;3.90;99.90;;;;;;5049427;28;20206;-67
2022/01/28 06:12:41;;;;;;;7.47;6.93;;;3.90;99.90;;;;;;5053149;28;20198;-66
2022/01/28 06:15:08;;;;;;;9.30;8.40;;;3.90;99.90;;;;;;5040877;28;20183;-66
2022/01/28 06:17:33;;;;;;;7.70;7.20;;;3.90;99.90;;;;;;5035061;28;20293;-66
2022/01/28 06:20:00;;;;;;;8.10;7.40;;;3.90;99.90;;;;;;5035706;28;20207;-66
2022/01/28 06:22:26;;;;;;;8.57;7.87;;;3.90;99.90;;;;;;5034813;28;20166;-66
2022/01/28 06:24:51;;;;;;;12.90;7.83;;;3.90;99.90;;;;;;5044982;28;20817;-66
2022/01/28 06:27:17;;;;;;;10.07;8.57;;;3.90;99.90;;;;;;5054776;28;20183;-67
2022/01/28 06:29:42;;;;;;;19.93;9.80;;;3.90;99.90;;;;;;5046072;28;20230;-66
2022/01/28 06:32:09;;;;;;;12.57;8.53;;;3.90;99.90;;;;;;5034463;28;20544;-67
2022/01/28 06:34:37;;;;;;;8.17;7.53;;;3.80;99.90;;;;;;5041112;28;20186;-65
2022/01/28 06:37:03;;;;;;;11.43;9.03;;;3.80;99.90;;;;;;5054472;28;20225;-65
2022/01/28 06:39:32;;;;;;;12.10;8.90;;;3.70;99.90;;;;;;5049326;28;20255;-67
2022/01/28 06:41:58;;;;;;;10.57;7.93;;;3.70;99.90;;;;;;5034060;28;20171;-66
2022/01/28 06:44:23;;;;;;;10.63;7.73;;;3.70;99.90;;;;;;5035772;28;20193;-66
2022/01/28 06:46:49;;;;;;;10.07;9.20;;;3.60;99.90;;;;;;5034581;28;20648;-66
2022/01/28 06:49:14;;;;;;;16.47;8.90;;;3.60;99.90;;;;;;5035870;28;20645;-67
2022/01/28 06:51:40;;;;;;;18.53;8.90;;;3.60;99.90;;;;;;5043626;28;20175;-67
2022/01/28 06:54:06;;;;;;;9.03;8.40;;;3.50;99.90;;;;;;5052083;28;20198;-66
2022/01/28 06:56:31;;;;;;;13.47;8.80;;;3.50;99.90;;;;;;5049836;28;20639;-66
2022/01/28 06:58:57;;;;;;;9.50;7.97;;;3.50;99.90;;;;;;5033744;28;20203;-66
2022/01/28 07:01:22;;;;;;;10.90;9.33;;;3.50;99.90;;;;;;5038423;28;20175;-66
2022/01/28 07:03:48;;;;;;;17.13;9.10;;;3.50;99.90;;;;;;5043516;28;20188;-67
2022/01/28 07:06:14;;;;;;;10.33;9.37;;;3.50;99.90;;;;;;5035155;28;20171;-66
2022/01/28 07:08:39;;;;;;;9.23;8.30;;;3.40;99.90;;;;;;5053484;28;20194;-66
2022/01/28 07:11:05;;;;;;;9.80;8.87;;;3.40;99.90;;;;;;5055963;28;20210;-67
2022/01/28 07:13:31;;;;;;;14.33;9.07;;;3.50;99.90;;;;;;5052781;28;20219;-66
2022/01/28 07:15:56;;;;;;;10.67;8.10;;;3.50;99.90;;;;;;5052649;28;20198;-67
2022/01/28 07:18:24;;;;;;;12.90;7.97;;;3.50;99.90;;;;;;5053916;28;20256;-66
2022/01/28 07:20:50;;;;;;;9.60;8.80;;;3.50;99.90;;;;;;5034657;28;20603;-66
2022/01/28 07:23:15;;;;;;;8.63;7.93;;;3.50;99.90;;;;;;5041916;28;20248;-67
2022/01/28 07:25:41;;;;;;;8.93;8.17;;;3.50;99.90;;;;;;5055214;28;20636;-66
2022/01/28 07:28:07;;;;;;;8.77;8.07;;;3.50;99.90;;;;;;5047304;28;20179;-66
2022/01/28 07:30:32;;;;;;;12.73;9.13;;;3.50;99.90;;;;;;5036210;28;20641;-66
2022/01/28 07:33:00;;;;;;;9.03;8.40;;;3.50;99.90;;;;;;5039093;28;20198;-63
2022/01/28 07:35:26;;;;;;;10.07;8.13;;;3.50;99.90;;;;;;5053909;28;20175;-67
2022/01/28 07:37:52;;;;;;;11.13;7.87;;;3.50;99.90;;;;;;5044373;28;20290;-67
2022/01/28 07:40:18;;;;;;;10.40;8.03;;;3.50;99.90;;;;;;5035001;28;20704;-65
2022/01/28 07:42:43;;;;;;;8.63;8.07;;;3.50;99.90;;;;;;5042964;28;20273;-65
2022/01/28 07:45:11;;;;;;;13.40;8.83;;;3.50;99.90;;;;;;5052458;28;20224;-65
2022/01/28 07:47:37;;;;;;;10.27;8.17;;;3.50;99.90;;;;;;5042900;28;20184;-66
2022/01/28 07:50:08;;;;;;;9.30;8.20;;;3.60;99.90;;;;;;5032846;28;20179;-65
2022/01/28 07:52:34;;;;;;;17.47;9.27;;;3.60;99.90;;;;;;5040175;28;20175;-64
2022/01/28 07:55:00;;;;;;;13.53;10.47;;;3.60;99.90;;;;;;5051935;28;20773;-65
2022/01/28 07:57:25;;;;;;;14.00;10.40;;;3.70;99.90;;;;;;5050321;28;20194;-66
2022/01/28 07:59:51;;;;;;;11.03;8.67;;;3.70;99.90;;;;;;5040996;28;20182;-66
2022/01/28 08:02:16;;;;;;;10.60;9.23;;;3.80;99.90;;;;;;5052301;28;20225;-66
2022/01/28 08:04:42;;;;;;;10.43;9.53;;;3.90;99.90;;;;;;5052171;28;20644;-66
2022/01/28 08:07:08;;;;;;;13.20;9.53;;;4.00;99.90;;;;;;5052398;28;20253;-66
2022/01/28 08:09:33;;;;;;;9.50;8.80;;;4.00;99.90;;;;;;5050012;28;20677;-65
2022/01/28 08:11:59;;;;;;;13.87;9.60;;;4.10;99.90;;;;;;5032251;28;20183;-67
2022/01/28 08:14:25;;;;;;;11.60;10.73;;;4.30;99.90;;;;;;5033388;28;20577;-67
2022/01/28 08:16:51;;;;;;;10.47;9.57;;;4.40;99.90;;;;;;5052226;28;20231;-67
2022/01/28 08:19:16;;;;;;;11.40;10.40;;;4.50;99.90;;;;;;5052080;28;20717;-67
2022/01/28 08:21:42;;;;;;;10.27;9.20;;;4.70;99.90;;;;;;5033128;28;20532;-67
2022/01/28 08:24:08;;;;;;;14.03;9.70;;;5.00;99.90;;;;;;5031880;28;20191;-64
2022/01/28 08:26:33;;;;;;;9.93;9.00;;;5.20;99.90;;;;;;5049052;28;20178;-66
2022/01/28 08:28:59;;;;;;;10.97;8.73;;;5.30;99.90;;;;;;5052011;28;20193;-65
2022/01/28 08:31:24;;;;;;;16.97;9.60;;;5.40;99.90;;;;;;5036859;28;20203;-65
2022/01/28 08:33:50;;;;;;;12.03;9.07;;;5.40;99.90;;;;;;5031773;28;20196;-65
2022/01/28 08:36:16;;;;;;;14.80;9.47;;;5.50;99.90;;;;;;5045262;28;20186;-65
2022/01/28 08:38:44;;;;;;;9.97;8.97;;;5.50;99.90;;;;;;5051981;28;20213;-65
2022/01/28 08:41:12;;;;;;;14.07;10.17;;;5.50;99.90;;;;;;5040062;28;20163;-65
2022/01/28 08:43:39;;;;;;;10.97;9.07;;;5.50;99.90;;;;;;5031712;28;20195;-64
2022/01/28 08:46:05;;;;;;;11.27;9.83;;;5.40;99.90;;;;;;5042334;28;20174;-66
2022/01/28 08:48:31;;;;;;;13.63;11.70;;;5.50;99.90;;;;;;5052265;28;20178;-65
2022/01/28 08:50:57;;;;;;;11.73;10.50;;;5.50;99.90;;;;;;5043076;28;20268;-66
2022/01/28 08:53:23;;;;;;;11.83;10.77;;;5.50;99.90;;;;;;5031683;28;20569;-66
2022/01/28 08:55:48;;;;;;;12.13;9.87;;;5.60;99.90;;;;;;5033024;28;20186;-65
2022/01/28 08:58:15;;;;;;;15.83;9.97;;;5.60;99.90;;;;;;5032100;28;20287;-67
2022/01/28 09:00:45;;;;;;;12.20;9.77;;;5.60;99.90;;;;;;5036221;28;20217;-66
2022/01/28 09:03:11;;;;;;;9.63;8.83;;;5.70;99.90;;;;;;5051317;28;20194;-66
2022/01/28 09:05:37;;;;;;;10.13;8.87;;;5.70;99.90;;;;;;5038347;28;20539;-66
2022/01/28 09:08:08;;;;;;;12.33;8.93;;;5.70;99.90;;;;;;5045288;28;20253;-67
2022/01/28 09:10:42;;;;;;;19.93;9.30;;;5.80;99.90;;;;;;5042854;28;20266;-64
2022/01/28 09:15:36;;;;;;;13.53;9.80;;;5.70;99.90;;;;;;5031535;28;20261;-65
2022/01/28 09:18:03;;;;;;;11.07;10.03;;;5.80;99.90;;;;;;5039005;28;20207;-65
2022/01/28 09:20:31;;;;;;;11.03;9.87;;;6.20;99.90;;;;;;5051418;28;20221;-65
2022/01/28 09:22:58;;;;;;;11.00;9.87;;;6.70;99.90;;;;;;5035255;28;20601;-65
2022/01/28 09:25:25;;;;;;;9.93;8.90;;;7.10;99.90;;;;;;5031435;28;20190;-65
2022/01/28 09:27:51;;;;;;;10.23;9.13;;;7.40;99.90;;;;;;5044101;28;20187;-64
2022/01/28 09:30:17;;;;;;;14.27;9.40;;;7.70;99.90;;;;;;5051305;28;20240;-65
2022/01/28 09:32:42;;;;;;;12.70;8.77;;;7.90;99.90;;;;;;5038577;28;20282;-66
2022/01/28 09:35:08;;;;;;;10.20;8.60;;;8.20;99.90;;;;;;5051272;28;20183;-66
2022/01/28 09:37:34;;;;;;;8.57;7.77;;;8.50;99.90;;;;;;5041051;28;20207;-66
2022/01/28 09:40:00;;;;;;;10.83;8.23;;;8.60;99.90;;;;;;5029444;28;20637;-65
2022/01/28 09:42:30;;;;;;;10.03;7.77;;;8.60;99.90;;;;;;5038602;28;20186;-66
2022/01/28 09:44:57;;;;;;;12.73;8.40;;;8.80;99.90;;;;;;5050814;28;20178;-64
2022/01/28 09:47:22;;;;;;;9.80;8.00;;;8.80;99.90;;;;;;5043431;28;20183;-65
2022/01/28 09:49:48;;;;;;;9.63;8.63;;;8.70;99.90;;;;;;5042378;28;20189;-65
2022/01/28 09:52:14;;;;;;;11.43;8.63;;;8.10;99.90;;;;;;5045148;28;20270;-64
2022/01/28 09:54:46;;;;;;;12.83;8.77;;;8.00;99.90;;;;;;5035495;28;20309;-64
2022/01/28 09:57:17;;;;;;;8.37;7.73;;;8.20;99.90;;;;;;5030686;28;20668;-64
2022/01/28 09:59:42;;;;;;;9.37;8.53;;;8.50;99.90;;;;;;5034839;28;20194;-64
2022/01/28 10:02:08;;;;;;;12.50;9.30;;;8.70;99.90;;;;;;5050474;28;20555;-65
2022/01/28 10:04:34;;;;;;;10.40;8.33;;;8.60;99.90;;;;;;5047627;28;20199;-64
2022/01/28 10:07:13;;;;;;;9.17;7.87;;;8.60;99.90;;;;;;5031383;28;20187;-66
2022/01/28 10:09:55;;;;;;;10.70;7.90;;;8.80;99.90;;;;;;5031321;28;20250;-65
2022/01/28 10:12:28;;;;;;;8.40;7.60;;;8.90;99.90;;;;;;5030478;28;20256;-66
2022/01/28 10:15:06;;;;;;;12.23;7.90;;;9.20;99.90;;;;;;5090574;22;20244;-66
2022/01/28 10:17:54;;;;;;;9.23;7.17;;;9.40;99.90;;;;;;5072111;28;20189;-68
2022/01/28 10:20:26;;;;;;;12.50;7.07;;;9.60;99.90;;;;;;5074667;28;20206;-66
2022/01/28 10:23:01;;;;;;;11.57;7.63;;;9.60;99.90;;;;;;5055068;28;20227;-65
2022/01/28 10:25:33;;;;;;;7.77;7.07;;;9.30;99.90;;;;;;5036510;28;20646;-68
2022/01/28 10:28:01;;;;;;;8.87;6.93;;;9.30;99.90;;;;;;5053128;28;20535;-65
2022/01/28 10:30:28;;;;;;;8.27;7.37;;;9.60;99.90;;;;;;5054858;28;20407;-66
2022/01/28 10:33:22;;;;;;;13.40;7.37;;;9.80;99.90;;;;;;5053974;28;20175;-66
2022/01/28 10:35:54;;;;;;;15.30;7.80;;;9.70;99.90;;;;;;5016546;28;20175;-69
2022/01/28 10:38:30;;;;;;;11.20;7.50;;;9.60;99.90;;;;;;5033671;28;20210;-65
2022/01/28 10:41:25;;;;;;;12.00;8.20;;;9.40;99.90;;;;;;5034076;28;20203;-66
2022/01/28 10:43:55;;;;;;;12.10;7.10;;;9.80;99.90;;;;;;5025184;28;20640;-69
2022/01/28 10:46:34;;;;;;;14.53;8.77;;;9.70;99.90;;;;;;5054724;28;20644;-66
2022/01/28 10:49:06;;;;;;;8.63;7.73;;;9.30;99.90;;;;;;5053980;28;20536;-66
2022/01/28 10:51:41;;;;;;;8.57;7.70;;;9.10;99.90;;;;;;5054163;28;20253;-66
2022/01/28 10:54:15;;;;;;;8.53;7.87;;;8.80;99.90;;;;;;5053918;28;20288;-66
2022/01/28 10:56:55;;;;;;;12.47;8.37;;;8.80;99.90;;;;;;5036173;28;20175;-66
2022/01/28 10:59:33;;;;;;;8.30;7.50;;;8.60;99.90;;;;;;5053958;28;20171;-67
2022/01/28 11:01:59;;;;;;;10.13;8.57;;;8.50;99.90;;;;;;5053690;28;20177;-67
2022/01/28 11:04:25;;;;;;;8.00;7.27;;;8.40;99.90;;;;;;5053730;28;20203;-66
2022/01/28 11:06:54;;;;;;;9.97;7.93;;;8.50;99.90;;;;;;5053417;28;20638;-66
2022/01/28 11:09:21;;;;;;;9.60;7.20;;;8.80;99.90;;;;;;5035497;28;20224;-67
2022/01/28 11:11:49;;;;;;;8.13;7.53;;;9.10;99.90;;;;;;5053421;28;20210;-66
2022/01/28 11:14:15;;;;;;;9.20;7.27;;;9.40;99.90;;;;;;5052936;28;20199;-65
2022/01/28 11:16:41;;;;;;;7.73;7.03;;;9.40;99.90;;;;;;5053454;28;20647;-66
2022/01/28 11:19:10;;;;;;;8.73;7.87;;;9.60;99.90;;;;;;5035399;28;20206;-67
2022/01/28 11:21:48;;;;;;;7.90;6.93;;;9.50;99.90;;;;;;5053395;28;20225;-66
2022/01/28 11:24:31;;;;;;;7.60;6.93;;;9.50;99.90;;;;;;5054340;28;20203;-67
2022/01/28 11:26:57;;;;;;;12.50;7.33;;;9.70;99.90;;;;;;5053377;28;20257;-65
2022/01/28 11:29:28;;;;;;;7.73;6.93;;;9.80;99.90;;;;;;5032028;28;20255;-67
2022/01/28 11:31:56;;;;;;;10.00;6.77;;;10.10;99.90;;;;;;5033798;28;20202;-67
2022/01/28 11:34:30;;;;;;;8.10;6.80;;;10.40;99.90;;;;;;5054112;28;20237;-65
2022/01/28 11:37:16;;;;;;;11.33;6.83;;;10.30;99.90;;;;;;5054767;28;20170;-66
2022/01/28 11:39:46;;;;;;;8.20;7.30;;;10.30;99.90;;;;;;5034239;28;20193;-65
2022/01/28 11:42:31;;;;;;;8.13;7.37;;;10.50;99.90;;;;;;5017327;28;20287;-65
2022/01/28 11:45:00;;;;;;;8.43;7.47;;;10.20;99.90;;;;;;5054784;28;20187;-67
2022/01/28 11:47:27;;;;;;;9.00;7.00;;;9.90;99.90;;;;;;5053674;28;20542;-67
2022/01/28 11:50:13;;;;;;;8.80;7.80;;;9.80;99.90;;;;;;5054354;28;20179;-67
2022/01/28 11:52:45;;;;;;;9.20;7.77;;;10.00;99.90;;;;;;5036154;28;20174;-66
2022/01/28 11:55:28;;;;;;;6.67;6.07;;;10.00;99.90;;;;;;5054394;28;20233;-66
2022/01/28 11:58:02;;;;;;;9.27;6.70;;;10.10;99.90;;;;;;5053725;28;20278;-65
2022/01/28 12:00:36;;;;;;;13.77;7.20;;;10.40;99.90;;;;;;5036126;28;20192;-66
2022/01/28 12:03:24;;;;;;;9.30;6.97;;;10.70;99.90;;;;;;5053870;28;20167;-67
2022/01/28 12:05:55;;;;;;;10.07;7.23;;;11.00;99.90;;;;;;5054017;28;20175;-65
2022/01/28 12:08:21;;;;;;;7.03;6.37;;;11.00;99.90;;;;;;5053315;28;20179;-66
2022/01/28 12:10:49;;;;;;;10.13;6.33;;;11.20;99.90;;;;;;5053536;28;20166;-66
2022/01/28 12:13:17;;;;;;;6.63;6.03;;;11.50;99.90;;;;;;5052277;28;20238;-67
2022/01/28 12:16:10;;;;;;;6.83;5.83;;;11.80;99.90;;;;;;5052985;28;20210;-67
2022/01/28 12:18:45;;;;;;;11.30;6.30;;;11.60;99.90;;;;;;5051483;28;20585;-67
2022/01/28 12:21:28;;;;;;;10.07;7.00;;;11.50;99.90;;;;;;5053096;28;20178;-66
2022/01/28 12:24:20;;;;;;;7.90;5.90;;;11.00;99.90;;;;;;5053061;28;20194;-67
2022/01/28 12:27:08;;;;;;;9.33;6.27;;;10.60;99.90;;;;;;5053313;28;20182;-67
2022/01/28 12:29:36;;;;;;;12.57;7.77;;;10.10;99.90;;;;;;5053207;28;20175;-66
2022/01/28 12:32:04;;;;;;;6.43;5.83;;;9.90;99.90;;;;;;5053134;28;20193;-67
2022/01/28 12:34:30;;;;;;;8.00;6.80;;;9.50;99.90;;;;;;5053787;28;20214;-67
2022/01/28 12:36:57;;;;;;;7.93;6.83;;;9.20;99.90;;;;;;5053356;28;20183;-66
2022/01/28 12:39:32;;;;;;;7.20;6.20;;;8.90;99.90;;;;;;5053127;28;20167;-68
2022/01/28 12:42:23;;;;;;;7.30;6.60;;;8.50;99.90;;;;;;5052421;28;20174;-66
2022/01/28 12:44:53;;;;;;;7.60;6.73;;;8.40;99.90;;;;;;5052840;28;20198;-66
2022/01/28 12:47:19;;;;;;;8.53;7.10;;;8.30;99.90;;;;;;5051558;28;20206;-67
2022/01/28 12:49:46;;;;;;;8.50;7.17;;;8.20;99.90;;;;;;5051720;28;20517;-67
2022/01/28 12:52:12;;;;;;;7.23;6.63;;;8.20;99.90;;;;;;5051339;28;20175;-66
2022/01/28 12:54:43;;;;;;;7.20;6.57;;;8.20;99.90;;;;;;5051595;28;20202;-66
2022/01/28 12:57:18;;;;;;;7.43;6.70;;;8.20;99.90;;;;;;5033633;28;20202;-67
2022/01/28 12:59:46;;;;;;;7.30;6.60;;;8.30;99.90;;;;;;5051795;28;20655;-67
2022/01/28 13:02:12;;;;;;;8.37;6.47;;;8.20;99.90;;;;;;5050739;28;20178;-66
2022/01/28 13:09:56;;;;;;;12.37;9.43;;;8.00;99.90;;;;;;5051191;28;20182;-67
2022/01/28 13:12:30;;;;;;;15.03;10.43;;;8.00;99.90;;;;;;5051866;28;20171;-66
2022/01/28 13:15:05;;;;;;;7.90;7.30;;;8.00;99.90;;;;;;5051328;28;20228;-66
2022/01/28 13:17:30;;;;;;;12.17;7.73;;;7.90;99.90;;;;;;5051201;28;20193;-66
2022/01/28 13:19:58;;;;;;;8.77;7.37;;;7.70;99.90;;;;;;5064591;28;20174;-66
2022/01/28 13:22:26;;;;;;;6.83;6.33;;;7.60;99.90;;;;;;5071321;28;20165;-67
2022/01/28 13:24:52;;;;;;;16.33;10.43;;;7.60;99.90;;;;;;5051217;28;20244;-67
2022/01/28 13:27:19;;;;;;;15.20;11.23;;;7.60;99.90;;;;;;5052054;28;20220;-67
2022/01/28 13:29:53;;;;;;;8.73;7.70;;;7.70;99.90;;;;;;5051423;28;20691;-66
2022/01/28 13:32:25;;;;;;;12.80;8.43;;;8.00;99.90;;;;;;5051595;28;20519;-68
2022/01/28 13:34:57;;;;;;;8.40;7.63;;;8.10;99.90;;;;;;5051657;28;20290;-68
2022/01/28 13:37:40;;;;;;;10.13;8.07;;;8.20;99.90;;;;;;5051503;28;20556;-67
2022/01/28 13:40:06;;;;;;;10.10;7.60;;;8.20;99.90;;;;;;5060368;28;20265;-67
2022/01/28 13:42:32;;;;;;;15.87;10.60;;;8.50;99.90;;;;;;5071364;28;20175;-66
2022/01/28 13:45:03;;;;;;;11.13;9.17;;;8.80;99.90;;;;;;5060881;28;20199;-67
2022/01/28 13:47:50;;;;;;;11.97;8.37;;;9.20;99.90;;;;;;5051680;28;20246;-65
2022/01/28 13:50:42;;;;;;;10.67;6.70;;;9.80;99.90;;;;;;5052383;28;20193;-67
2022/01/28 13:56:08;;;;;;;12.27;8.20;;;10.70;99.90;;;;;;5055239;28;20698;-67
2022/01/28 13:58:44;;;;;;;9.50;8.60;;;10.60;99.90;;;;;;5055235;28;20200;-65
2022/01/28 14:01:10;;;;;;;9.77;7.97;;;10.30;99.90;;;;;;5055397;28;20190;-66
2022/01/28 14:03:48;;;;;;;10.23;8.03;;;10.00;99.90;;;;;;5054505;28;20273;-67
2022/01/28 14:06:18;;;;;;;9.80;8.90;;;9.90;99.90;;;;;;5055690;28;20509;-66
2022/01/28 14:08:51;;;;;;;10.57;8.27;;;9.90;99.90;;;;;;5054853;28;20174;-66
2022/01/28 14:11:32;;;;;;;31.70;17.00;;;9.90;99.90;;;;;;5055221;28;20228;-66
2022/01/28 14:14:16;;;;;;;14.57;9.43;;;9.80;99.90;;;;;;5054356;28;20308;-66
2022/01/28 14:16:44;;;;;;;40.87;20.07;;;9.50;99.90;;;;;;5055082;28;20656;-66
2022/01/28 14:19:10;;;;;;;18.17;11.23;;;9.40;99.90;;;;;;5054782;28;20249;-65
2022/01/28 14:21:38;;;;;;;9.57;7.17;;;9.30;99.90;;;;;;5036833;28;20175;-65
2022/01/28 14:24:06;;;;;;;9.77;8.07;;;9.20;99.90;;;;;;5054365;28;20245;-66
2022/01/28 14:26:32;;;;;;;17.77;11.30;;;9.10;99.90;;;;;;5054969;28;20163;-67
2022/01/28 14:31:26;;;;;;;10.50;9.20;;;8.80;99.90;;;;;;5054417;28;20577;-67
2022/01/28 14:33:54;;;;;;;13.13;10.43;;;8.70;99.90;;;;;;5053754;28;20212;-66